createdAt,value
2023-03-01T00:01:12.117Z,102305.63
2023-03-01T00:03:39.147Z,102302.47
2023-03-01T00:06:06.367Z,102270.34
2023-03-01T00:08:34.156Z,102300.28
2023-03-01T00:11:05.924Z,102305.47
2023-03-01T00:13:32.783Z,102283.09
2023-03-01T00:15:59.384Z,102308.78
2023-03-01T00:18:26.090Z,102307.06
2023-03-01T00:20:54.002Z,102301.91
2023-03-01T00:23:21.503Z,102276.00
2023-03-01T00:25:48.315Z,102292.56
2023-03-01T00:28:15.308Z,102298.34
2023-03-01T00:30:42.001Z,102270.34
2023-03-01T00:33:08.654Z,102272.88
2023-03-01T00:35:36.141Z,102276.19
2023-03-01T00:38:02.993Z,102286.47
2023-03-01T00:40:31.619Z,102283.81
2023-03-01T00:42:58.264Z,102270.00
2023-03-01T00:45:25.302Z,102277.38
2023-03-01T00:47:52.490Z,102229.13
2023-03-01T00:50:19.626Z,102259.84
2023-03-01T00:52:46.255Z,102225.25
2023-03-01T00:55:13.159Z,102264.91
2023-03-01T00:57:39.792Z,102237.38
2023-03-01T01:00:07.926Z,102266.53
2023-03-01T01:02:35.025Z,102244.97
2023-03-01T01:05:01.565Z,102253.72
2023-03-01T01:07:28.577Z,102248.50
2023-03-01T01:09:55.115Z,102254.38
2023-03-01T01:12:22.789Z,102257.03
2023-03-01T01:14:49.441Z,102237.00
2023-03-01T01:17:15.960Z,102219.66
2023-03-01T01:19:42.746Z,102258.56
2023-03-01T01:22:09.250Z,102241.28
2023-03-01T01:24:36.107Z,102257.69
2023-03-01T01:27:02.769Z,102243.66
2023-03-01T01:29:29.456Z,102211.38
2023-03-01T01:31:56.351Z,102258.88
2023-03-01T01:34:22.960Z,102250.34
2023-03-01T01:36:57.074Z,102243.47
2023-03-01T01:39:23.677Z,102257.34
2023-03-01T01:41:50.205Z,102257.06
2023-03-01T01:44:26.861Z,102266.03
2023-03-01T01:47:21.046Z,102257.06
2023-03-01T01:49:52.241Z,102238.75
2023-03-01T01:52:22.703Z,102232.78
2023-03-01T01:54:55.323Z,102244.19
2023-03-01T01:57:34.927Z,102233.72
2023-03-01T02:00:11.029Z,102235.31
2023-03-01T02:02:38.586Z,102239.91
2023-03-01T02:05:34.565Z,102235.47
2023-03-01T02:08:01.321Z,102234.03
2023-03-01T02:10:28.991Z,102193.19
2023-03-01T02:12:57.113Z,102226.22
2023-03-01T02:15:24.945Z,102225.19
2023-03-01T02:17:51.684Z,102176.91
2023-03-01T02:20:34.613Z,102169.72
2023-03-01T02:23:01.345Z,102207.63
2023-03-01T02:25:42.998Z,102168.56
2023-03-01T02:28:16.456Z,102209.28
2023-03-01T02:31:04.432Z,102205.97
2023-03-01T02:33:37.071Z,102221.63
2023-03-01T02:36:37.560Z,102221.69
2023-03-01T02:39:07.374Z,102226.03
2023-03-01T02:41:37.285Z,102208.66
2023-03-01T02:44:05.130Z,102212.09
2023-03-01T02:46:32.106Z,102218.03
2023-03-01T02:48:59.720Z,102207.78
2023-03-01T02:51:42.673Z,102197.94
2023-03-01T02:54:16.858Z,102196.63
2023-03-01T02:56:44.254Z,102206.84
2023-03-01T02:59:11.786Z,102184.25
2023-03-01T03:01:38.388Z,102202.41
2023-03-01T03:04:06.775Z,102203.44
2023-03-01T03:06:33.558Z,102199.16
2023-03-01T03:09:01.187Z,102203.44
2023-03-01T03:11:27.993Z,102196.56
2023-03-01T03:13:55.299Z,102206.13
2023-03-01T03:16:22.502Z,102194.78
2023-03-01T03:18:49.163Z,102193.19
2023-03-01T03:21:17.320Z,102174.13
2023-03-01T03:23:44.609Z,102198.09
2023-03-01T03:26:14.321Z,102173.94
2023-03-01T03:28:41.062Z,102193.59
2023-03-01T03:31:09.224Z,102194.72
2023-03-01T03:33:36.191Z,102166.03
2023-03-01T03:36:02.778Z,102164.34
2023-03-01T03:38:29.532Z,102163.47
2023-03-01T03:41:14.339Z,102171.25
2023-03-01T03:43:43.591Z,102173.94
2023-03-01T03:46:11.778Z,102156.63
2023-03-01T03:48:41.338Z,102161.66
2023-03-01T03:51:08.518Z,102156.50
2023-03-01T03:53:35.099Z,102119.41
2023-03-01T03:56:01.692Z,102147.81
2023-03-01T03:58:28.475Z,102135.88
2023-03-01T04:00:57.144Z,102155.56
2023-03-01T04:03:26.354Z,102150.50
2023-03-01T04:05:53.402Z,102137.50
2023-03-01T04:08:22.198Z,102147.03
2023-03-01T04:10:53.378Z,102156.81
2023-03-01T04:13:21.876Z,102172.34
2023-03-01T04:15:54.094Z,102179.44
2023-03-01T04:18:22.820Z,102159.56
2023-03-01T04:20:49.678Z,102171.50
2023-03-01T04:23:23.692Z,102159.63
2023-03-01T04:25:57.893Z,102176.84
2023-03-01T04:28:35.901Z,102171.06
2023-03-01T04:31:15.142Z,102149.59
2023-03-01T04:34:02.021Z,102184.91
2023-03-01T04:36:30.254Z,102163.38
2023-03-01T04:38:57.714Z,102168.88
2023-03-01T04:41:25.668Z,102156.13
2023-03-01T04:43:52.274Z,102129.22
2023-03-01T04:46:20.722Z,102168.94
2023-03-01T04:48:50.666Z,102160.00
2023-03-01T04:51:17.734Z,102170.16
2023-03-01T04:53:44.517Z,102139.66
2023-03-01T04:56:11.580Z,102166.44
2023-03-01T04:58:38.374Z,102166.28
2023-03-01T05:01:19.801Z,102170.00
2023-03-01T05:03:51.817Z,102171.78
2023-03-01T05:06:19.503Z,102179.75
2023-03-01T05:08:46.442Z,102176.38
2023-03-01T05:11:13.108Z,102178.97
2023-03-01T05:13:40.572Z,102183.31
2023-03-01T05:16:12.421Z,102172.66
2023-03-01T05:18:39.962Z,102163.50
2023-03-01T05:21:09.484Z,102139.38
2023-03-01T05:23:36.084Z,102155.69
2023-03-01T05:26:06.243Z,102160.38
2023-03-01T05:28:34.931Z,102162.72
2023-03-01T05:31:02.341Z,102156.50
2023-03-01T05:33:28.991Z,102160.69
2023-03-01T05:35:55.634Z,102133.59
2023-03-01T05:38:23.509Z,102149.81
2023-03-01T05:40:50.107Z,102119.44
2023-03-01T05:43:17.884Z,102143.56
2023-03-01T05:45:45.041Z,102153.09
2023-03-01T05:48:12.455Z,102156.53
2023-03-01T05:50:46.786Z,102153.91
2023-03-01T05:53:18.286Z,102141.81
2023-03-01T05:55:45.315Z,102157.28
2023-03-01T05:58:15.029Z,102151.13
2023-03-01T06:00:42.997Z,102144.22
2023-03-01T06:03:11.303Z,102134.72
2023-03-01T06:05:38.183Z,102148.34
2023-03-01T06:08:04.949Z,102130.09
2023-03-01T06:10:31.620Z,102132.88
2023-03-01T06:12:58.884Z,102162.78
2023-03-01T06:15:26.218Z,102150.91
2023-03-01T06:17:57.153Z,102135.06
2023-03-01T06:20:26.610Z,102153.19
2023-03-01T06:22:53.479Z,102169.19
2023-03-01T06:25:22.735Z,102168.06
2023-03-01T06:27:49.763Z,102158.38
2023-03-01T06:30:18.706Z,102153.91
2023-03-01T06:32:45.847Z,102157.22
2023-03-01T06:35:14.637Z,102152.00
2023-03-01T06:37:41.954Z,102155.31
2023-03-01T06:40:09.774Z,102111.09
2023-03-01T06:42:37.085Z,102138.78
2023-03-01T06:45:05.150Z,102149.78
2023-03-01T06:47:31.948Z,102111.81
2023-03-01T06:49:58.487Z,102138.38
2023-03-01T06:52:25.123Z,102134.72
2023-03-01T06:54:51.762Z,102127.63
2023-03-01T06:57:18.439Z,102114.69
2023-03-01T06:59:45.030Z,102125.72
2023-03-01T07:02:12.930Z,102110.94
2023-03-01T07:04:40.469Z,102130.09
2023-03-01T07:07:06.980Z,102124.72
2023-03-01T07:09:33.800Z,102138.25
2023-03-01T07:12:00.368Z,102122.66
2023-03-01T07:14:27.104Z,102126.00
2023-03-01T07:16:54.269Z,102126.38
2023-03-01T07:19:21.489Z,102134.06
2023-03-01T07:21:48.253Z,102124.38
2023-03-01T07:24:15.400Z,102104.34
2023-03-01T07:26:42.023Z,102129.97
2023-03-01T07:29:10.826Z,102126.25
2023-03-01T07:31:37.736Z,102128.78
2023-03-01T07:34:04.348Z,102111.09
2023-03-01T07:36:31.113Z,102106.97
2023-03-01T07:38:58.826Z,102095.59
2023-03-01T07:41:25.795Z,102112.59
2023-03-01T07:43:52.367Z,102120.31
2023-03-01T07:46:20.147Z,102118.59
2023-03-01T07:48:47.230Z,102116.97
2023-03-01T07:51:14.054Z,102112.91
2023-03-01T07:53:40.790Z,102122.09
2023-03-01T07:56:12.684Z,102111.63
2023-03-01T07:58:43.083Z,102117.19
2023-03-01T08:01:28.205Z,102091.75
2023-03-01T08:04:00.990Z,102097.22
2023-03-01T08:06:27.715Z,102098.84
2023-03-01T08:08:59.300Z,102117.41
2023-03-01T08:11:26.071Z,102092.00
2023-03-01T08:13:53.274Z,102115.63
2023-03-01T08:16:20.814Z,102091.66
2023-03-01T08:18:47.316Z,102086.78
2023-03-01T08:21:16.541Z,102093.25
2023-03-01T08:23:43.909Z,102108.25
2023-03-01T08:26:13.263Z,102103.16
2023-03-01T08:28:40.147Z,102104.06
2023-03-01T08:31:31.946Z,102097.72
2023-03-01T08:34:00.838Z,102100.28
2023-03-01T08:36:33.450Z,102074.97
2023-03-01T08:39:00.773Z,102096.50
2023-03-01T08:41:27.802Z,102091.53
2023-03-01T08:43:59.404Z,102089.81
2023-03-01T08:46:27.780Z,102101.81
2023-03-01T08:48:54.345Z,102088.63
2023-03-01T08:51:22.190Z,102073.28
2023-03-01T08:53:49.332Z,102095.16
2023-03-01T08:56:16.686Z,102082.72
2023-03-01T08:58:48.371Z,102099.81
2023-03-01T09:01:17.655Z,102067.88
2023-03-01T09:03:44.808Z,102091.38
2023-03-01T09:06:12.273Z,102086.25
2023-03-01T09:08:41.393Z,102089.94
2023-03-01T09:11:09.969Z,102070.81
2023-03-01T09:13:37.092Z,102092.16
2023-03-01T09:16:05.173Z,102067.34
2023-03-01T09:18:32.397Z,102072.50
2023-03-01T09:21:09.892Z,102090.78
2023-03-01T09:23:42.329Z,102087.84
2023-03-01T09:26:10.700Z,102055.81
2023-03-01T09:28:38.377Z,102067.00
2023-03-01T09:31:05.767Z,102048.34
2023-03-01T09:33:33.624Z,102065.25
2023-03-01T09:36:09.258Z,102052.16
2023-03-01T09:38:35.995Z,102047.63
2023-03-01T09:41:02.669Z,101960.59
2023-03-01T09:43:46.438Z,102026.41
2023-03-01T09:46:17.761Z,102042.50
2023-03-01T09:48:50.300Z,102013.19
2023-03-01T09:51:27.521Z,102045.00
2023-03-01T09:53:55.600Z,102036.56
2023-03-01T09:56:28.225Z,102035.03
2023-03-01T09:59:16.180Z,102028.63
2023-03-01T10:01:58.424Z,102014.38
2023-03-01T10:04:28.321Z,101997.78
2023-03-01T10:07:36.354Z,101985.69
2023-03-01T10:10:06.591Z,101990.34
2023-03-01T10:12:39.138Z,101996.59
2023-03-01T10:15:13.510Z,101997.78
2023-03-01T10:18:15.758Z,102001.81
2023-03-01T10:21:18.456Z,101989.06
2023-03-01T10:23:45.553Z,101974.97
2023-03-01T10:26:21.355Z,101974.09
2023-03-01T10:28:54.291Z,101983.25
2023-03-01T10:31:29.164Z,101987.09
2023-03-01T10:33:58.035Z,101976.91
2023-03-01T10:36:25.003Z,101986.25
2023-03-01T10:38:55.038Z,101972.38
2023-03-01T10:41:25.480Z,101978.88
2023-03-01T10:44:01.129Z,101976.16
2023-03-01T10:46:30.645Z,101965.22
2023-03-01T10:49:22.092Z,101965.91
2023-03-01T10:51:53.362Z,101947.75
2023-03-01T10:54:27.638Z,101929.72
2023-03-01T10:56:56.533Z,101926.16
2023-03-01T10:59:30.322Z,101948.41
2023-03-01T11:02:24.877Z,101941.91
2023-03-01T11:05:02.109Z,101939.06
2023-03-01T11:07:31.858Z,101937.31
2023-03-01T11:09:58.495Z,101933.09
2023-03-01T11:12:25.448Z,101915.78
2023-03-01T11:14:54.853Z,101922.38
2023-03-01T11:17:34.738Z,101917.84
2023-03-01T11:20:29.150Z,101914.00
2023-03-01T11:22:58.870Z,101918.03
2023-03-01T11:25:34.037Z,101921.06
2023-03-01T11:28:03.315Z,101901.09
2023-03-01T11:31:07.344Z,101913.03
2023-03-01T11:33:49.528Z,101854.84
2023-03-01T11:36:44.039Z,101908.28
2023-03-01T11:39:36.734Z,101910.56
2023-03-01T11:42:18.042Z,101911.75
2023-03-01T11:44:50.971Z,101895.25
2023-03-01T11:47:21.143Z,101915.34
2023-03-01T11:50:09.937Z,101927.03
2023-03-01T11:52:55.865Z,101924.25
2023-03-01T11:55:48.911Z,101921.78
2023-03-01T11:58:28.604Z,101835.75
2023-03-01T12:01:02.745Z,101901.94
2023-03-01T12:03:40.787Z,101906.63
2023-03-01T12:06:19.251Z,101906.34
2023-03-01T12:09:10.814Z,101895.47
2023-03-01T12:11:37.387Z,101902.91
2023-03-01T12:14:25.462Z,101888.56
2023-03-01T12:17:29.073Z,101888.41
2023-03-01T12:20:26.715Z,101874.72
2023-03-01T12:23:20.792Z,101866.78
2023-03-01T12:26:25.490Z,101864.81
2023-03-01T12:29:08.409Z,101867.34
2023-03-01T12:31:57.993Z,101859.47
2023-03-01T12:35:01.734Z,101850.88
2023-03-01T12:37:43.075Z,101855.28
2023-03-01T12:40:18.666Z,101857.00
2023-03-01T12:43:22.679Z,101868.66
2023-03-01T12:45:56.029Z,101862.47
2023-03-01T12:48:47.883Z,101861.19
2023-03-01T12:51:23.735Z,101865.53
2023-03-01T12:53:51.875Z,101869.47
2023-03-01T12:56:22.167Z,101867.28
2023-03-01T12:59:17.107Z,101868.91
2023-03-01T13:01:49.545Z,101875.56
2023-03-01T13:04:34.369Z,101856.25
2023-03-01T13:07:25.779Z,101860.47
2023-03-01T13:09:55.469Z,101859.66
2023-03-01T13:12:47.090Z,101847.31
2023-03-01T13:15:37.304Z,101828.34
2023-03-01T13:18:03.785Z,101842.56
2023-03-01T13:20:34.956Z,101841.53
2023-03-01T13:23:05.023Z,101805.22
2023-03-01T13:25:37.732Z,101818.91
2023-03-01T13:28:36.328Z,101836.38
2023-03-01T13:31:05.072Z,101828.19
2023-03-01T13:33:31.551Z,101843.16
2023-03-01T13:35:59.514Z,101838.34
2023-03-01T13:38:59.934Z,101830.97
2023-03-01T13:41:44.691Z,101831.53
2023-03-01T13:44:36.899Z,101822.88
2023-03-01T13:47:06.612Z,101830.53
2023-03-01T13:49:45.897Z,101824.44
2023-03-01T13:52:34.600Z,101831.03
2023-03-01T13:55:02.799Z,101807.69
2023-03-01T13:57:37.005Z,101804.50
2023-03-01T14:00:05.776Z,101825.78
2023-03-01T14:02:33.060Z,101805.19
2023-03-01T14:05:00.789Z,101812.03
2023-03-01T14:07:31.205Z,101799.50
2023-03-01T14:10:05.027Z,101801.34
2023-03-01T14:13:01.301Z,101800.47
2023-03-01T14:15:40.760Z,101795.34
2023-03-01T14:18:28.496Z,101790.13
2023-03-01T14:20:55.603Z,101801.59
2023-03-01T14:23:24.336Z,101798.19
2023-03-01T14:26:00.234Z,101768.41
2023-03-01T14:28:28.996Z,101756.66
2023-03-01T14:31:01.024Z,101774.09
2023-03-01T14:33:34.226Z,101731.53
2023-03-01T14:36:12.833Z,101762.81
2023-03-01T14:38:45.700Z,101757.78
2023-03-01T14:41:17.588Z,101755.72
2023-03-01T14:43:47.852Z,101734.97
2023-03-01T14:46:38.883Z,101757.84
2023-03-01T14:49:18.992Z,101748.91
2023-03-01T14:51:57.604Z,101742.84
2023-03-01T14:54:44.772Z,101752.06
2023-03-01T14:57:25.850Z,101753.41
2023-03-01T14:59:55.537Z,101718.22
2023-03-01T15:02:24.515Z,101693.28
2023-03-01T15:04:54.307Z,101725.91
2023-03-01T15:07:21.132Z,101717.41
2023-03-01T15:09:48.367Z,101717.78
2023-03-01T15:12:30.288Z,101727.28
2023-03-01T15:15:04.184Z,101727.97
2023-03-01T15:17:36.277Z,101723.22
2023-03-01T15:20:07.524Z,101726.13
2023-03-01T15:22:34.246Z,101727.59
2023-03-01T15:25:01.304Z,101705.34
2023-03-01T15:27:28.343Z,101706.38
2023-03-01T15:29:58.690Z,101679.31
2023-03-01T15:32:34.992Z,101713.47
2023-03-01T15:35:22.765Z,101697.72
2023-03-01T15:37:50.646Z,101677.19
2023-03-01T15:40:34.028Z,101700.34
2023-03-01T15:43:02.150Z,101704.56
2023-03-01T15:45:31.186Z,101688.56
2023-03-01T15:48:02.441Z,101712.78
2023-03-01T15:50:31.370Z,101670.41
2023-03-01T15:52:59.430Z,101696.69
2023-03-01T15:55:31.148Z,101662.88
2023-03-01T15:58:06.006Z,101669.81
2023-03-01T16:00:32.631Z,101691.44
2023-03-01T16:02:59.524Z,101697.69
2023-03-01T16:05:29.583Z,101691.63
2023-03-01T16:07:56.110Z,101683.66
2023-03-01T16:10:23.199Z,101661.09
2023-03-01T16:12:53.550Z,101696.94
2023-03-01T16:15:21.821Z,101696.19
2023-03-01T16:17:48.638Z,101694.38
2023-03-01T16:20:27.141Z,101686.97
2023-03-01T16:22:55.015Z,101688.84
2023-03-01T16:25:22.096Z,101691.22
2023-03-01T16:27:51.879Z,101675.25
2023-03-01T16:30:21.055Z,101679.72
2023-03-01T16:32:48.842Z,101696.38
2023-03-01T16:35:17.608Z,101700.69
2023-03-01T16:37:44.573Z,101695.19
2023-03-01T16:40:18.412Z,101691.94
2023-03-01T16:42:45.215Z,101652.31
2023-03-01T16:45:22.846Z,101674.81
2023-03-01T16:47:50.928Z,101691.56
2023-03-01T16:50:17.472Z,101678.91
2023-03-01T16:52:44.122Z,101692.66
2023-03-01T16:55:11.386Z,101683.78
2023-03-01T16:57:39.107Z,101691.41
2023-03-01T17:00:08.540Z,101678.19
2023-03-01T17:02:36.636Z,101703.56
2023-03-01T17:05:04.142Z,101675.41
2023-03-01T17:07:34.381Z,101697.56
2023-03-01T17:10:06.653Z,101698.44
2023-03-01T17:12:34.914Z,101714.53
2023-03-01T17:15:01.575Z,101693.41
2023-03-01T17:17:28.263Z,101709.41
2023-03-01T17:19:55.015Z,101714.47
2023-03-01T17:22:21.573Z,101711.41
2023-03-01T17:24:48.181Z,101711.31
2023-03-01T17:27:16.042Z,101713.53
2023-03-01T17:29:42.775Z,101699.13
2023-03-01T17:32:10.325Z,101718.22
2023-03-01T17:34:37.575Z,101709.84
2023-03-01T17:37:04.179Z,101711.53
2023-03-01T17:39:36.003Z,101729.00
2023-03-01T17:42:05.204Z,101710.63
2023-03-01T17:44:35.323Z,101724.22
2023-03-01T17:47:02.956Z,101724.38
2023-03-01T17:49:29.842Z,101703.31
2023-03-01T17:51:56.726Z,101733.97
2023-03-01T17:54:23.896Z,101727.88
2023-03-01T17:56:51.025Z,101722.13
2023-03-01T17:59:17.860Z,101695.16
2023-03-01T18:01:44.906Z,101730.69
2023-03-01T18:04:14.115Z,101726.31
2023-03-01T18:06:41.065Z,101724.09
2023-03-01T18:09:08.123Z,101741.59
2023-03-01T18:11:35.567Z,101743.06
2023-03-01T18:14:02.809Z,101736.59
2023-03-01T18:16:31.974Z,101628.38
2023-03-01T18:18:58.780Z,101738.00
2023-03-01T18:21:25.359Z,101716.19
2023-03-01T18:23:52.667Z,101728.84
2023-03-01T18:26:22.120Z,101748.88
2023-03-01T18:28:50.937Z,101687.94
2023-03-01T18:31:21.713Z,101732.16
2023-03-01T18:33:50.137Z,101725.88
2023-03-01T18:36:28.616Z,101719.88
2023-03-01T18:38:56.592Z,101710.16
2023-03-01T18:41:25.887Z,101724.97
2023-03-01T18:43:52.948Z,101711.06
2023-03-01T18:46:20.425Z,101691.91
2023-03-01T18:48:47.803Z,101703.84
2023-03-01T18:51:16.597Z,101724.59
2023-03-01T18:53:43.529Z,101707.91
2023-03-01T18:56:10.758Z,101717.97
2023-03-01T18:58:38.029Z,101694.53
2023-03-01T19:01:08.067Z,101702.25
2023-03-01T19:03:35.581Z,101707.19
2023-03-01T19:06:02.215Z,101705.78
2023-03-01T19:08:30.545Z,101713.06
2023-03-01T19:11:03.361Z,101706.47
2023-03-01T19:13:32.122Z,101688.78
2023-03-01T19:16:08.833Z,101616.22
2023-03-01T19:18:36.502Z,101704.28
2023-03-01T19:21:04.930Z,101705.44
2023-03-01T19:23:35.141Z,101686.44
2023-03-01T19:26:03.247Z,101695.00
2023-03-01T19:28:29.820Z,101682.63
2023-03-01T19:31:08.327Z,101695.78
2023-03-01T19:33:36.166Z,101593.16
2023-03-01T19:36:04.277Z,101689.06
2023-03-01T19:38:31.062Z,101687.16
2023-03-01T19:40:58.189Z,101702.25
2023-03-01T19:43:25.226Z,101705.66
2023-03-01T19:45:52.780Z,101705.25
2023-03-01T19:48:19.704Z,101711.13
2023-03-01T19:50:46.509Z,101683.91
2023-03-01T19:53:14.189Z,101703.75
2023-03-01T19:55:40.943Z,101680.16
2023-03-01T19:58:08.053Z,101703.06
2023-03-01T20:00:34.960Z,101680.50
2023-03-01T20:03:02.078Z,101675.66
2023-03-01T20:05:29.259Z,101694.16
2023-03-01T20:07:57.491Z,101699.56
2023-03-01T20:10:28.464Z,101666.72
2023-03-01T20:12:55.164Z,101683.56
2023-03-01T20:15:21.952Z,101685.31
2023-03-01T20:17:48.624Z,101705.69
2023-03-01T20:20:15.598Z,101689.53
2023-03-01T20:22:43.353Z,101707.09
2023-03-01T20:25:10.426Z,101696.75
2023-03-01T20:27:37.080Z,101709.00
2023-03-01T20:30:04.782Z,101689.72
2023-03-01T20:32:32.698Z,101673.06
2023-03-01T20:34:59.790Z,101703.66
2023-03-01T20:37:26.382Z,101676.19
2023-03-01T20:39:53.212Z,101685.69
2023-03-01T20:42:19.731Z,101687.19
2023-03-01T20:44:46.347Z,101715.13
2023-03-01T20:47:13.286Z,101710.44
2023-03-01T20:49:39.833Z,101683.94
2023-03-01T20:52:06.964Z,101703.47
2023-03-01T20:54:33.690Z,101707.97
2023-03-01T20:57:00.244Z,101709.38
2023-03-01T20:59:26.896Z,101696.69
2023-03-01T21:01:53.675Z,101701.00
2023-03-01T21:04:20.327Z,101691.59
2023-03-01T21:06:47.065Z,101674.97
2023-03-01T21:09:13.630Z,101699.47
2023-03-01T21:11:40.135Z,101690.06
2023-03-01T21:14:07.018Z,101710.41
2023-03-01T21:16:35.126Z,101713.16
2023-03-01T21:19:02.864Z,101618.16
2023-03-01T21:21:29.601Z,101689.13
2023-03-01T21:23:56.186Z,101679.09
2023-03-01T21:26:24.949Z,101706.94
2023-03-01T21:28:55.864Z,101708.66
2023-03-01T21:31:27.592Z,101709.53
2023-03-01T21:33:56.662Z,101703.22
2023-03-01T21:36:25.329Z,101706.31
2023-03-01T21:38:52.486Z,101682.75
2023-03-01T21:41:25.572Z,101697.38
2023-03-01T21:43:53.915Z,101700.19
2023-03-01T21:46:22.966Z,101668.69
2023-03-01T21:48:51.548Z,101692.78
2023-03-01T21:51:20.603Z,101700.47
2023-03-01T21:53:47.398Z,101683.78
2023-03-01T21:56:19.209Z,101700.56
2023-03-01T21:58:45.910Z,101705.16
2023-03-01T22:01:15.581Z,101697.44
2023-03-01T22:03:46.324Z,101698.47
2023-03-01T22:06:19.289Z,101686.47
2023-03-01T22:08:50.799Z,101686.69
2023-03-01T22:11:18.469Z,101708.09
2023-03-01T22:13:52.177Z,101697.72
2023-03-01T22:16:20.675Z,101695.69
2023-03-01T22:18:47.816Z,101682.91
2023-03-01T22:21:15.472Z,101682.31
2023-03-01T22:23:42.740Z,101673.50
2023-03-01T22:26:25.878Z,101699.94
2023-03-01T22:28:53.494Z,101688.91
2023-03-01T22:31:20.383Z,101679.50
2023-03-01T22:33:46.990Z,101681.06
2023-03-01T22:36:13.591Z,101696.63
2023-03-01T22:38:40.224Z,101683.22
2023-03-01T22:41:07.204Z,101671.84
2023-03-01T22:43:34.523Z,101681.81
2023-03-01T22:46:10.384Z,101639.06
2023-03-01T22:48:36.974Z,101686.19
2023-03-01T22:51:03.707Z,101669.59
2023-03-01T22:53:30.795Z,101687.88
2023-03-01T22:55:57.323Z,101656.69
2023-03-01T22:58:23.979Z,101666.06
2023-03-01T23:00:50.544Z,101649.75
2023-03-01T23:03:17.999Z,101647.78
2023-03-01T23:05:45.010Z,101662.75
2023-03-01T23:08:12.266Z,101637.28
2023-03-01T23:10:41.853Z,101637.81
2023-03-01T23:13:08.500Z,101661.94
2023-03-01T23:15:35.106Z,101640.16
2023-03-01T23:18:01.625Z,101636.84
2023-03-01T23:20:28.584Z,101657.72
2023-03-01T23:23:01.475Z,101648.47
2023-03-01T23:25:28.875Z,101668.75
2023-03-01T23:27:55.731Z,101681.84
2023-03-01T23:30:22.953Z,101678.63
2023-03-01T23:32:50.422Z,101671.34
2023-03-01T23:35:17.139Z,101655.63
2023-03-01T23:37:45.392Z,101647.38
2023-03-01T23:40:12.868Z,101676.66
2023-03-01T23:42:40.730Z,101679.09
2023-03-01T23:45:08.795Z,101678.06
2023-03-01T23:47:36.152Z,101678.03
2023-03-01T23:50:03.231Z,101669.34
2023-03-01T23:52:30.834Z,101674.47
2023-03-01T23:54:57.468Z,101674.00
2023-03-01T23:57:24.078Z,101674.47
2023-03-01T23:59:50.732Z,101665.91
